Time;durP1;ratioP1;P1;durP2;ratioP2;P2;SDS_P1;SDS_P2;PMS_P1;PMS_P2;Temp;Humidity;BMP_temperature;BMP_pressure;BME280_temperature;BME280_humidity;BME280_pressure;Samples;Min_cycle;Max_cycle;Signal;HPM_P1;HPM_P2
2023/01/13 00:00:07;;;;;;;4.07;2.10;;;6.10;99.90;;;;;;6356119;23;20205;-63
2023/01/13 00:02:43;;;;;;;1.48;1.38;;;6.20;99.90;;;;;;6331996;23;20064;-62
2023/01/13 00:05:14;;;;;;;2.53;1.65;;;6.30;99.90;;;;;;6354099;23;20389;-64
2023/01/13 00:07:48;;;;;;;2.53;1.50;;;6.40;99.90;;;;;;6307235;23;20163;-63
2023/01/13 00:10:20;;;;;;;1.27;1.13;;;6.40;99.90;;;;;;6368179;23;20052;-62
2023/01/13 00:12:56;;;;;;;2.35;1.27;;;6.60;99.90;;;;;;6358900;23;20056;-61
2023/01/13 00:15:30;;;;;;;1.33;1.20;;;6.60;99.90;;;;;;6357100;23;20378;-62
2023/01/13 00:18:04;;;;;;;4.10;1.67;;;6.70;99.90;;;;;;6357188;23;20005;-63
2023/01/13 00:20:35;;;;;;;5.20;3.28;;;6.80;99.90;;;;;;6357624;23;20068;-62
2023/01/13 00:23:09;;;;;;;7.63;3.42;;;6.80;99.90;;;;;;6383869;23;19989;-64
2023/01/13 00:25:40;;;;;;;5.70;3.05;;;6.80;99.90;;;;;;6384440;23;20053;-64
2023/01/13 00:28:13;;;;;;;5.60;3.15;;;6.70;99.90;;;;;;6361073;23;20357;-65
2023/01/13 00:30:44;;;;;;;8.43;3.40;;;6.60;99.90;;;;;;6361162;23;20353;-63
2023/01/13 00:33:20;;;;;;;7.78;3.25;;;6.50;99.90;;;;;;6383194;23;20355;-62
2023/01/13 00:36:00;;;;;;;7.18;3.45;;;6.30;99.90;;;;;;6330719;23;19998;-62
2023/01/13 00:38:37;;;;;;;5.57;2.90;;;6.20;99.90;;;;;;6359401;23;20012;-64
2023/01/13 00:41:11;;;;;;;7.72;3.20;;;6.20;99.90;;;;;;6359606;23;20012;-62
2023/01/13 00:43:42;;;;;;;4.93;3.30;;;6.20;99.90;;;;;;6334583;23;20111;-63
2023/01/13 00:46:18;;;;;;;5.80;3.58;;;6.10;99.90;;;;;;6384385;23;20002;-62
2023/01/13 00:48:50;;;;;;;6.30;2.88;;;6.00;99.90;;;;;;6369306;23;20005;-61
2023/01/13 00:51:21;;;;;;;6.65;3.33;;;6.00;99.90;;;;;;6390400;23;20312;-63
2023/01/13 00:53:59;;;;;;;9.55;3.28;;;5.90;99.90;;;;;;6360017;23;20061;-62
2023/01/13 00:56:30;;;;;;;7.57;3.20;;;6.00;99.90;;;;;;6360398;23;20084;-63
2023/01/13 00:59:04;;;;;;;5.90;3.35;;;5.90;99.90;;;;;;6357746;23;20027;-63
2023/01/13 01:01:36;;;;;;;8.27;3.95;;;5.90;99.90;;;;;;6350020;23;20027;-61
2023/01/13 01:04:07;;;;;;;5.55;3.08;;;5.80;99.90;;;;;;6412082;23;20001;-62
2023/01/13 01:06:38;;;;;;;9.35;4.13;;;5.70;99.90;;;;;;6222149;23;20016;-61
2023/01/13 01:09:15;;;;;;;6.00;3.33;;;5.60;99.90;;;;;;6234036;23;20004;-63
2023/01/13 01:11:49;;;;;;;5.18;2.97;;;5.60;99.90;;;;;;6234515;23;19991;-62
2023/01/13 01:14:20;;;;;;;5.70;2.75;;;5.50;99.90;;;;;;6281485;23;20058;-62
2023/01/13 01:16:51;;;;;;;8.43;3.60;;;5.50;99.90;;;;;;6235365;23;20043;-62
2023/01/13 01:19:26;;;;;;;7.15;2.95;;;5.60;99.90;;;;;;6234485;23;20011;-62
2023/01/13 01:22:00;;;;;;;5.57;2.85;;;5.70;99.90;;;;;;6231313;23;20563;-61
2023/01/13 01:24:31;;;;;;;4.50;2.47;;;5.70;99.90;;;;;;6281836;23;20051;-63
2023/01/13 01:27:08;;;;;;;6.57;3.00;;;5.60;99.90;;;;;;6233523;23;20010;-63
2023/01/13 01:29:44;;;;;;;4.95;2.70;;;5.60;99.90;;;;;;6236050;23;20008;-62
2023/01/13 01:32:17;;;;;;;5.03;2.78;;;5.60;99.90;;;;;;6282090;23;20308;-62
2023/01/13 01:34:53;;;;;;;5.10;3.20;;;5.50;99.90;;;;;;6234985;23;20050;-64
2023/01/13 01:37:24;;;;;;;4.65;2.80;;;5.50;99.90;;;;;;6280439;23;20003;-61
2023/01/13 01:39:55;;;;;;;5.00;2.97;;;5.50;99.90;;;;;;6234523;23;20011;-65
2023/01/13 01:45:29;;;;;;;4.45;2.35;;;5.50;99.90;;;;;;6258125;23;20231;-64
2023/01/13 01:48:03;;;;;;;3.58;2.10;;;5.50;99.90;;;;;;6236127;23;19998;-61
2023/01/13 01:50:40;;;;;;;3.85;2.25;;;5.50;99.90;;;;;;6234689;23;20009;-61
2023/01/13 01:53:17;;;;;;;2.45;1.70;;;5.50;99.90;;;;;;6210880;23;19995;-61
2023/01/13 01:55:51;;;;;;;3.92;2.03;;;5.50;99.90;;;;;;6234395;23;20014;-63
2023/01/13 01:58:32;;;;;;;2.08;1.70;;;5.50;99.90;;;;;;6242592;23;20018;-64
2023/01/13 02:01:03;;;;;;;4.13;1.92;;;5.50;99.90;;;;;;6279658;23;20018;-62
2023/01/13 02:03:43;;;;;;;3.30;2.42;;;5.50;99.90;;;;;;6234833;23;20046;-62
2023/01/13 02:06:19;;;;;;;2.88;2.13;;;5.50;99.90;;;;;;6290490;23;20016;-62
2023/01/13 02:08:54;;;;;;;5.20;2.40;;;5.50;99.90;;;;;;6390784;23;20009;-62
2023/01/13 02:14:29;;;;;;;3.67;1.98;;;5.40;99.90;;;;;;6265517;23;20050;-61
2023/01/13 02:17:27;;;;;;;3.97;1.90;;;5.40;99.90;;;;;;6286798;23;20021;-64
2023/01/13 02:20:32;;;;;;;4.53;2.28;;;5.40;99.90;;;;;;6265443;23;20009;-62
2023/01/13 02:26:31;;;;;;;3.33;1.85;;;5.30;99.90;;;;;;6287486;23;19991;-61
2023/01/13 02:33:02;;;;;;;3.90;2.42;;;5.10;99.90;;;;;;6264476;23;20062;-63
2023/01/13 02:35:41;;;;;;;4.07;2.00;;;5.00;99.90;;;;;;6352551;23;20072;-63
2023/01/13 02:38:17;;;;;;;2.78;2.22;;;4.90;99.90;;;;;;6355487;23;20024;-62
2023/01/13 02:44:05;;;;;;;3.08;2.15;;;4.80;99.90;;;;;;6357515;23;20029;-63
2023/01/13 02:46:42;;;;;;;4.90;2.00;;;4.90;99.90;;;;;;6356071;23;20005;-63
2023/01/13 02:49:37;;;;;;;3.20;2.38;;;4.90;99.90;;;;;;6356164;23;20061;-62
2023/01/13 02:52:32;;;;;;;2.13;1.60;;;5.00;99.90;;;;;;6350529;23;20183;-61
2023/01/13 02:55:13;;;;;;;1.80;1.63;;;5.00;99.90;;;;;;6355912;23;19993;-64
2023/01/13 02:57:49;;;;;;;3.50;1.23;;;5.10;99.90;;;;;;6355889;23;20001;-62
2023/01/13 03:00:23;;;;;;;1.33;1.08;;;5.20;99.90;;;;;;6355973;23;20013;-61
2023/01/13 03:03:00;;;;;;;1.20;1.00;;;5.30;99.90;;;;;;6355599;23;20013;-62
2023/01/13 03:05:35;;;;;;;4.30;1.55;;;5.40;99.90;;;;;;6338870;23;20020;-63
2023/01/13 03:08:26;;;;;;;1.17;1.08;;;5.40;99.90;;;;;;6380579;23;20041;-62
2023/01/13 03:11:14;;;;;;;3.00;1.40;;;5.50;99.90;;;;;;6286662;23;20003;-62
2023/01/13 03:14:08;;;;;;;1.83;1.45;;;5.40;99.90;;;;;;6262406;23;19995;-63
2023/01/13 03:17:11;;;;;;;4.57;2.03;;;5.40;99.90;;;;;;6289707;23;20058;-63
2023/01/13 03:20:03;;;;;;;1.90;1.33;;;5.40;99.90;;;;;;6265054;23;20293;-61
2023/01/13 03:22:50;;;;;;;2.63;1.75;;;5.40;99.90;;;;;;6264028;23;20003;-61
2023/01/13 03:25:35;;;;;;;1.75;1.35;;;5.40;99.90;;;;;;6265020;23;20042;-62
2023/01/13 03:28:35;;;;;;;5.03;2.13;;;5.40;99.90;;;;;;6287050;23;20009;-61
2023/01/13 03:31:17;;;;;;;2.45;1.42;;;5.40;99.90;;;;;;6286569;23;20005;-62
2023/01/13 03:33:56;;;;;;;2.45;1.58;;;5.40;99.90;;;;;;6264516;23;20009;-65
2023/01/13 03:36:29;;;;;;;3.13;1.75;;;5.30;99.90;;;;;;6387023;23;20003;-65
2023/01/13 03:39:12;;;;;;;2.63;2.03;;;5.30;99.90;;;;;;6362799;23;19998;-62
2023/01/13 03:42:07;;;;;;;3.10;2.03;;;5.30;99.90;;;;;;6287088;23;19999;-62
2023/01/13 03:45:02;;;;;;;2.67;1.48;;;5.30;99.90;;;;;;6265166;23;20068;-63
2023/01/13 03:47:44;;;;;;;;;;;5.20;99.90;;;;;;6389703;23;20002;-62
2023/01/13 03:50:32;;;;;;;2.17;1.73;;;5.20;99.90;;;;;;6259831;23;19905;-64
2023/01/13 03:53:11;;;;;;;2.72;1.80;;;5.20;99.90;;;;;;6285089;23;20337;-65
2023/01/13 03:55:52;;;;;;;4.35;1.75;;;5.10;99.90;;;;;;6388025;23;20009;-63
2023/01/13 03:58:28;;;;;;;2.58;1.40;;;5.10;99.90;;;;;;6286400;23;19991;-64
2023/01/13 04:01:18;;;;;;;4.85;1.45;;;5.10;99.90;;;;;;6285488;23;20014;-63
2023/01/13 04:04:02;;;;;;;2.30;1.38;;;5.20;99.90;;;;;;6388823;23;20003;-63
2023/01/13 04:06:49;;;;;;;2.03;1.40;;;5.20;99.90;;;;;;6296571;22;20015;-62
2023/01/13 04:09:31;;;;;;;4.03;1.55;;;5.20;99.90;;;;;;6264036;23;20216;-61
2023/01/13 04:12:11;;;;;;;2.45;1.60;;;5.20;99.90;;;;;;6264846;23;20003;-63
2023/01/13 04:14:46;;;;;;;2.08;1.30;;;5.30;99.90;;;;;;6286719;23;20009;-61
2023/01/13 04:17:18;;;;;;;1.60;1.38;;;5.40;99.90;;;;;;6388865;23;20001;-62
2023/01/13 04:19:49;;;;;;;4.05;2.60;;;5.40;99.90;;;;;;6388437;23;20013;-65
2023/01/13 04:22:26;;;;;;;2.40;1.45;;;5.50;99.90;;;;;;6262923;23;20078;-62
2023/01/13 04:25:00;;;;;;;2.45;1.70;;;5.60;99.90;;;;;;6274479;23;19998;-62
2023/01/13 04:27:34;;;;;;;4.38;1.80;;;5.60;99.90;;;;;;6389987;23;20279;-63
2023/01/13 04:30:09;;;;;;;3.17;1.90;;;5.60;99.90;;;;;;6264719;23;20069;-63
2023/01/13 04:32:46;;;;;;;2.25;1.52;;;5.60;99.90;;;;;;6286179;23;20058;-63
2023/01/13 04:35:23;;;;;;;3.15;2.50;;;5.60;99.90;;;;;;6384466;23;19991;-61
2023/01/13 04:38:05;;;;;;;3.92;1.80;;;5.60;99.90;;;;;;6285051;23;19995;-63
2023/01/13 04:40:37;;;;;;;4.80;2.00;;;5.70;99.90;;;;;;6286444;23;19999;-62
2023/01/13 04:43:11;;;;;;;2.42;1.40;;;5.70;99.90;;;;;;6362634;23;20009;-62
2023/01/13 04:45:48;;;;;;;3.47;2.08;;;5.60;99.90;;;;;;6363277;23;20202;-62
2023/01/13 04:48:21;;;;;;;4.82;1.80;;;5.60;99.90;;;;;;6286205;23;20005;-63
2023/01/13 04:50:53;;;;;;;2.15;1.88;;;5.50;99.90;;;;;;6361476;23;20269;-62
2023/01/13 04:53:24;;;;;;;2.35;1.65;;;5.50;99.90;;;;;;6264383;23;20003;-64
2023/01/13 04:55:58;;;;;;;4.10;1.80;;;5.40;99.90;;;;;;6387757;23;20010;-62
2023/01/13 04:58:32;;;;;;;3.03;1.85;;;5.50;99.90;;;;;;6263803;23;20050;-62
2023/01/13 05:01:05;;;;;;;4.40;1.60;;;5.50;99.90;;;;;;6263436;23;20002;-62
2023/01/13 05:03:36;;;;;;;4.53;1.70;;;5.50;99.90;;;;;;6264619;23;20054;-61
2023/01/13 05:06:10;;;;;;;5.40;2.40;;;5.50;99.90;;;;;;6301972;22;20302;-61
2023/01/13 05:08:41;;;;;;;3.03;1.88;;;5.40;99.90;;;;;;6389562;23;20466;-62
2023/01/13 05:17:04;;;;;;;4.22;2.50;;;5.30;99.90;;;;;;6342002;23;20376;-64
2023/01/13 05:19:39;;;;;;;3.83;1.88;;;5.30;99.90;;;;;;6390362;23;20333;-62
2023/01/13 05:25:23;;;;;;;4.03;2.85;;;5.20;99.90;;;;;;6274566;23;20184;-62
2023/01/13 05:28:00;;;;;;;3.50;2.72;;;5.20;99.90;;;;;;6390367;23;20001;-64
2023/01/13 05:30:41;;;;;;;3.78;2.22;;;5.20;99.90;;;;;;6264962;23;20631;-64
2023/01/13 05:33:19;;;;;;;2.95;2.42;;;5.10;99.90;;;;;;6287345;23;20439;-63
2023/01/13 05:35:56;;;;;;;3.88;2.45;;;5.10;99.90;;;;;;6264312;23;20046;-63
2023/01/13 05:38:33;;;;;;;3.08;2.08;;;5.10;99.90;;;;;;6274819;23;20042;-64
2023/01/13 05:43:56;;;;;;;4.13;1.98;;;5.10;99.90;;;;;;6265526;23;20066;-63
2023/01/13 05:46:30;;;;;;;5.77;2.63;;;5.00;99.90;;;;;;6288375;23;19995;-64
2023/01/13 05:49:04;;;;;;;4.55;2.33;;;5.00;99.90;;;;;;6264779;23;20006;-62
2023/01/13 05:51:35;;;;;;;3.67;1.90;;;5.10;99.90;;;;;;6259450;23;20044;-61
2023/01/13 05:54:10;;;;;;;3.97;2.25;;;5.10;99.90;;;;;;6242508;23;20199;-64
2023/01/13 05:56:46;;;;;;;3.55;2.55;;;5.20;99.90;;;;;;6386424;23;20011;-64
2023/01/13 05:59:20;;;;;;;3.63;2.38;;;5.10;99.90;;;;;;6362971;23;20015;-63
2023/01/13 06:01:53;;;;;;;6.45;2.55;;;5.00;99.90;;;;;;6258943;23;20172;-61
2023/01/13 06:04:24;;;;;;;4.13;2.70;;;5.00;99.90;;;;;;6354841;22;20349;-62
2023/01/13 06:06:55;;;;;;;12.65;2.53;;;4.80;99.90;;;;;;6259042;23;19999;-64
2023/01/13 06:09:26;;;;;;;4.97;2.78;;;4.80;99.90;;;;;;6363100;23;20006;-63
2023/01/13 06:12:06;;;;;;;5.95;2.50;;;4.80;99.90;;;;;;6265475;23;20003;-63
2023/01/13 06:14:40;;;;;;;4.50;3.20;;;4.80;99.90;;;;;;6265190;23;20338;-64
2023/01/13 06:17:16;;;;;;;3.65;3.08;;;4.70;99.90;;;;;;6363799;23;20009;-64
2023/01/13 06:19:50;;;;;;;6.60;3.00;;;4.70;99.90;;;;;;6264186;23;20003;-63
2023/01/13 06:22:26;;;;;;;4.80;2.55;;;4.70;99.90;;;;;;6261521;23;20329;-62
2023/01/13 06:25:05;;;;;;;6.22;3.05;;;4.80;99.90;;;;;;6286319;23;20530;-62
2023/01/13 06:27:39;;;;;;;4.75;2.80;;;4.80;99.90;;;;;;6286461;23;20344;-63
2023/01/13 06:30:11;;;;;;;5.28;2.78;;;4.90;99.90;;;;;;6262197;23;20066;-65
2023/01/13 06:32:46;;;;;;;8.40;3.60;;;4.90;99.90;;;;;;6262932;23;20343;-63
2023/01/13 06:35:22;;;;;;;7.72;3.65;;;4.80;99.90;;;;;;6271388;23;20003;-62
2023/01/13 06:38:04;;;;;;;9.50;3.65;;;4.70;99.90;;;;;;6264065;23;20058;-62
2023/01/13 06:40:36;;;;;;;5.80;3.83;;;4.80;99.90;;;;;;6265116;23;20010;-63
2023/01/13 06:43:16;;;;;;;6.82;3.80;;;4.80;99.90;;;;;;6286873;23;20074;-62
2023/01/13 06:45:53;;;;;;;6.82;3.17;;;4.80;99.90;;;;;;6265412;23;20050;-64
2023/01/13 06:48:31;;;;;;;5.57;3.38;;;4.80;99.90;;;;;;6364287;23;20104;-62
2023/01/13 06:51:05;;;;;;;6.28;3.28;;;4.80;99.90;;;;;;6262669;23;20002;-63
2023/01/13 06:53:37;;;;;;;6.25;2.92;;;4.80;99.90;;;;;;6389702;23;19999;-62
2023/01/13 06:56:10;;;;;;;5.55;3.10;;;4.90;99.90;;;;;;6264949;23;20062;-62
2023/01/13 06:58:43;;;;;;;6.70;2.97;;;4.90;99.90;;;;;;6286358;23;20009;-63
2023/01/13 07:01:14;;;;;;;4.33;2.97;;;5.00;99.90;;;;;;6264768;23;20082;-62
2023/01/13 07:03:45;;;;;;;5.97;3.83;;;5.00;99.90;;;;;;6264895;23;20038;-63
2023/01/13 07:06:19;;;;;;;6.43;3.55;;;5.00;99.90;;;;;;6403363;23;20024;-63
2023/01/13 07:08:53;;;;;;;9.87;3.90;;;5.10;99.90;;;;;;6287008;23;19999;-63
2023/01/13 07:11:29;;;;;;;8.10;3.70;;;5.10;99.90;;;;;;6286483;23;19995;-62
2023/01/13 07:16:57;;;;;;;5.10;3.15;;;5.10;99.90;;;;;;6286994;23;20003;-62
2023/01/13 07:19:31;;;;;;;7.43;3.10;;;5.30;99.90;;;;;;6361187;23;19999;-62
2023/01/13 07:22:08;;;;;;;9.07;3.97;;;5.30;99.90;;;;;;6284089;23;19995;-62
2023/01/13 07:24:39;;;;;;;6.13;3.35;;;5.40;99.90;;;;;;6363366;23;20062;-63
2023/01/13 07:27:12;;;;;;;8.10;3.28;;;5.30;99.90;;;;;;6261968;23;20009;-62
2023/01/13 07:29:46;;;;;;;6.37;3.50;;;5.40;99.90;;;;;;6364116;23;20014;-63
2023/01/13 07:32:20;;;;;;;6.82;3.45;;;5.50;99.90;;;;;;6287391;23;20006;-64
2023/01/13 07:34:57;;;;;;;7.18;4.47;;;5.50;99.90;;;;;;6388746;23;20005;-62
2023/01/13 07:37:28;;;;;;;10.70;5.13;;;5.50;99.90;;;;;;6284451;23;20009;-62
2023/01/13 07:40:00;;;;;;;7.63;4.00;;;5.50;99.90;;;;;;6389261;23;20002;-63
2023/01/13 07:45:29;;;;;;;8.48;3.28;;;5.60;99.90;;;;;;6265423;23;20039;-63
2023/01/13 07:48:00;;;;;;;5.28;3.47;;;5.50;99.90;;;;;;6363266;23;20044;-63
2023/01/13 07:50:34;;;;;;;5.35;4.00;;;5.50;99.90;;;;;;6283386;23;20054;-63
2023/01/13 07:53:08;;;;;;;10.35;4.20;;;5.50;99.90;;;;;;6286143;23;20054;-62
2023/01/13 07:55:45;;;;;;;7.03;3.60;;;5.60;99.90;;;;;;6388566;23;20003;-62
2023/01/13 07:58:17;;;;;;;7.90;4.50;;;5.70;99.90;;;;;;6285536;23;20002;-63
2023/01/13 08:00:48;;;;;;;8.18;3.90;;;5.70;99.90;;;;;;6363266;23;20362;-63
2023/01/13 08:03:22;;;;;;;17.35;4.85;;;5.90;99.90;;;;;;6286124;23;20001;-63
2023/01/13 08:05:59;;;;;;;7.90;4.25;;;6.00;99.90;;;;;;6295510;22;20275;-63
2023/01/13 08:08:36;;;;;;;8.70;4.53;;;6.10;99.90;;;;;;6267568;23;20059;-63
2023/01/13 08:11:10;;;;;;;9.27;3.83;;;6.20;99.90;;;;;;6264354;23;20054;-62
2023/01/13 08:13:44;;;;;;;12.10;4.05;;;6.30;99.90;;;;;;6264586;23;19998;-62
2023/01/13 08:16:15;;;;;;;9.00;4.20;;;6.20;99.90;;;;;;6286378;23;19991;-63
2023/01/13 08:18:47;;;;;;;7.82;4.07;;;6.20;99.90;;;;;;6286892;23;19995;-63
2023/01/13 08:21:18;;;;;;;8.00;3.58;;;6.20;99.90;;;;;;6262926;23;20464;-63
2023/01/13 08:23:49;;;;;;;7.82;4.07;;;6.30;99.90;;;;;;6285469;23;20054;-62
2023/01/13 08:26:21;;;;;;;10.63;3.97;;;6.40;99.90;;;;;;6286100;23;20007;-64
2023/01/13 08:28:56;;;;;;;7.32;3.70;;;6.40;99.90;;;;;;6363267;23;20086;-64
2023/01/13 08:31:28;;;;;;;12.00;4.03;;;6.50;99.90;;;;;;6260881;23;20054;-64
2023/01/13 08:33:59;;;;;;;8.27;4.15;;;6.50;99.90;;;;;;6263667;23;20058;-64
2023/01/13 08:36:30;;;;;;;9.02;4.07;;;6.50;99.90;;;;;;6284927;23;19998;-63
2023/01/13 08:39:10;;;;;;;5.55;3.47;;;6.60;99.90;;;;;;6262306;23;20003;-64
2023/01/13 08:41:54;;;;;;;6.30;3.75;;;6.70;99.90;;;;;;6286103;23;19999;-65
2023/01/13 08:44:29;;;;;;;7.85;3.78;;;6.80;99.90;;;;;;6286921;23;20002;-64
2023/01/13 08:47:00;;;;;;;7.00;3.97;;;6.90;99.90;;;;;;6264195;23;20066;-63
2023/01/13 08:49:35;;;;;;;7.05;4.57;;;6.90;99.90;;;;;;6263725;23;20006;-64
2023/01/13 08:52:06;;;;;;;11.30;5.40;;;7.00;99.90;;;;;;6286493;23;19995;-61
2023/01/13 08:54:40;;;;;;;7.47;4.50;;;7.10;99.90;;;;;;6363240;23;20003;-63
2023/01/13 08:57:13;;;;;;;6.28;4.53;;;7.10;99.90;;;;;;6264774;23;19994;-65
2023/01/13 08:59:45;;;;;;;11.48;4.85;;;7.30;99.90;;;;;;6262547;23;20006;-64
2023/01/13 09:02:18;;;;;;;12.35;5.10;;;7.30;99.90;;;;;;6389207;23;20029;-65
2023/01/13 09:04:50;;;;;;;9.55;4.68;;;7.40;99.90;;;;;;6265194;23;20268;-65
2023/01/13 09:07:26;;;;;;;11.68;5.55;;;7.50;99.90;;;;;;6377928;23;20355;-62
2023/01/13 09:10:00;;;;;;;7.75;4.60;;;7.50;99.90;;;;;;6265545;23;20177;-62
2023/01/13 09:15:24;;;;;;;6.88;3.55;;;7.30;99.90;;;;;;6265060;23;20581;-63
2023/01/13 09:17:58;;;;;;;7.82;3.97;;;7.40;99.90;;;;;;6286859;23;19999;-62
2023/01/13 09:20:32;;;;;;;7.90;3.53;;;7.40;99.90;;;;;;6261386;23;20009;-62
2023/01/13 09:23:08;;;;;;;6.70;3.83;;;7.40;99.90;;;;;;6265064;23;20050;-63
2023/01/13 09:25:39;;;;;;;7.20;4.05;;;7.50;99.90;;;;;;6390281;23;20009;-63
2023/01/13 09:28:13;;;;;;;11.10;4.10;;;7.50;99.90;;;;;;6265715;23;20043;-63
2023/01/13 09:30:46;;;;;;;10.57;4.25;;;7.60;99.90;;;;;;6288934;23;20009;-62
2023/01/13 09:36:12;;;;;;;11.02;4.00;;;7.60;99.90;;;;;;6284051;23;19995;-64
2023/01/13 09:38:46;;;;;;;6.75;3.80;;;7.70;99.90;;;;;;6287055;23;20006;-62
2023/01/13 09:44:27;;;;;;;5.85;3.80;;;7.80;99.90;;;;;;6287057;23;20050;-62
2023/01/13 09:47:05;;;;;;;10.68;4.45;;;7.90;99.90;;;;;;6363964;23;20005;-62
2023/01/13 09:49:40;;;;;;;7.82;3.58;;;7.80;99.90;;;;;;6287669;23;20003;-63
2023/01/13 09:52:19;;;;;;;9.77;4.43;;;7.70;99.90;;;;;;6262623;23;20038;-62
2023/01/13 09:55:00;;;;;;;9.55;5.45;;;7.60;99.90;;;;;;6275073;23;20468;-66
2023/01/13 09:57:38;;;;;;;7.85;4.65;;;7.80;99.90;;;;;;6264234;23;20073;-63
2023/01/13 10:00:29;;;;;;;8.57;4.75;;;7.80;99.90;;;;;;6286366;23;19998;-62
2023/01/13 10:03:18;;;;;;;7.07;4.10;;;7.90;99.90;;;;;;6238855;23;20062;-62
2023/01/13 10:05:58;;;;;;;8.07;4.18;;;8.10;99.90;;;;;;6288979;22;20022;-63
2023/01/13 10:08:59;;;;;;;10.13;5.20;;;8.40;99.90;;;;;;6269257;23;20050;-63
2023/01/13 10:14:42;;;;;;;10.60;5.15;;;8.70;99.90;;;;;;6287024;23;20062;-62
2023/01/13 10:17:44;;;;;;;7.65;4.53;;;8.70;99.90;;;;;;6286816;23;20351;-63
2023/01/13 10:20:38;;;;;;;11.40;4.68;;;8.80;99.90;;;;;;6285372;23;20003;-64
2023/01/13 10:23:38;;;;;;;8.05;4.72;;;9.00;99.90;;;;;;6297180;23;20009;-64
2023/01/13 10:26:30;;;;;;;11.93;5.25;;;9.20;99.90;;;;;;6265568;23;20095;-63
2023/01/13 10:29:24;;;;;;;10.38;5.28;;;9.40;99.90;;;;;;6264637;23;20054;-63
2023/01/13 10:31:58;;;;;;;9.65;4.93;;;9.80;99.90;;;;;;6264927;23;20173;-64
2023/01/13 10:34:29;;;;;;;9.77;5.47;;;10.10;99.90;;;;;;6262940;23;20005;-64
2023/01/13 10:37:07;;;;;;;10.18;5.18;;;10.30;99.90;;;;;;6287660;23;20058;-64
2023/01/13 10:39:42;;;;;;;10.15;5.60;;;10.50;99.90;;;;;;6265270;23;20062;-62
2023/01/13 10:42:20;;;;;;;13.57;5.43;;;11.00;99.90;;;;;;6263276;23;20017;-63
2023/01/13 10:44:54;;;;;;;12.57;5.95;;;11.60;99.90;;;;;;6286603;23;20007;-64
2023/01/13 10:47:31;;;;;;;11.95;5.88;;;12.60;99.90;;;;;;6289662;23;20049;-64
2023/01/13 10:50:14;;;;;;;14.30;6.18;;;13.30;99.90;;;;;;6389591;23;20005;-65
2023/01/13 10:53:17;;;;;;;12.73;6.13;;;13.40;99.90;;;;;;6286772;23;20010;-66
2023/01/13 10:56:02;;;;;;;12.95;4.90;;;13.00;99.90;;;;;;6286804;23;20005;-65
2023/01/13 10:58:39;;;;;;;12.90;5.25;;;13.00;99.90;;;;;;6363016;23;20002;-63
2023/01/13 11:01:29;;;;;;;15.00;5.57;;;12.90;99.90;;;;;;6389559;23;20011;-63
2023/01/13 11:04:02;;;;;;;14.40;5.30;;;12.90;99.90;;;;;;6287269;23;20614;-63
2023/01/13 11:06:34;;;;;;;8.02;5.15;;;12.80;99.90;;;;;;6296350;22;20279;-64
2023/01/13 11:09:24;;;;;;;9.20;4.80;;;12.50;99.90;;;;;;6264887;23;20306;-63
2023/01/13 11:11:56;;;;;;;8.50;5.13;;;12.20;99.90;;;;;;6286883;23;20050;-63
2023/01/13 11:14:38;;;;;;;9.15;5.07;;;12.10;99.90;;;;;;6264901;23;20492;-64
2023/01/13 11:17:39;;;;;;;8.93;5.05;;;11.90;99.90;;;;;;6264921;23;20250;-64
2023/01/13 11:20:12;;;;;;;13.02;5.20;;;11.70;99.90;;;;;;6285124;23;19999;-62
2023/01/13 11:22:47;;;;;;;8.95;5.10;;;11.90;99.90;;;;;;6286963;23;20013;-65
2023/01/13 11:25:42;;;;;;;13.63;5.63;;;12.20;99.90;;;;;;6288450;23;20006;-65
2023/01/13 11:28:22;;;;;;;13.15;4.93;;;12.40;99.90;;;;;;6263465;23;19990;-62
2023/01/13 11:31:12;;;;;;;12.10;5.35;;;12.40;99.90;;;;;;6265207;23;20478;-62
2023/01/13 11:33:55;;;;;;;13.05;5.18;;;12.50;99.90;;;;;;6286524;23;20054;-66
2023/01/13 11:36:41;;;;;;;11.43;5.70;;;12.80;99.90;;;;;;6286497;23;19991;-64
2023/01/13 11:39:32;;;;;;;11.25;6.15;;;12.70;99.90;;;;;;6266664;23;19995;-63
2023/01/13 11:42:20;;;;;;;20.20;6.40;;;12.30;99.90;;;;;;6262746;23;20009;-63
2023/01/13 11:45:06;;;;;;;15.38;5.10;;;12.30;99.90;;;;;;6264917;23;20038;-62
2023/01/13 11:47:43;;;;;;;14.02;6.20;;;12.40;99.90;;;;;;6287311;23;19999;-62
2023/01/13 11:50:44;;;;;;;19.80;8.98;;;12.70;99.90;;;;;;6263585;23;20066;-62
2023/01/13 11:53:36;;;;;;;15.35;7.05;;;12.80;99.90;;;;;;6264011;23;19995;-61
2023/01/13 11:56:30;;;;;;;6.55;2.35;;;13.20;99.90;;;;;;6264528;23;20001;-62
2023/01/13 11:59:25;;;;;;;3.63;3.00;;;13.40;99.90;;;;;;6264883;23;20003;-64
2023/01/13 12:02:18;;;;;;;4.15;2.05;;;13.60;99.90;;;;;;6264084;23;20504;-63
2023/01/13 12:05:19;;;;;;;2.40;1.70;;;13.60;99.90;;;;;;6287342;22;20014;-63
2023/01/13 12:08:12;;;;;;;2.58;1.60;;;13.80;99.90;;;;;;6272998;23;20003;-63
2023/01/13 12:11:00;;;;;;;2.22;1.65;;;14.30;99.90;;;;;;6286969;23;20551;-62
2023/01/13 12:14:00;;;;;;;3.00;1.75;;;14.90;99.90;;;;;;6286893;23;20066;-65
2023/01/13 12:16:31;;;;;;;3.72;2.90;;;14.60;99.90;;;;;;6292264;23;20025;-64
2023/01/13 12:19:06;;;;;;;5.82;3.10;;;14.70;99.90;;;;;;6261849;23;19999;-63
2023/01/13 12:21:52;;;;;;;7.30;4.70;;;14.60;99.90;;;;;;6262115;23;20015;-63
2023/01/13 12:25:03;;;;;;;7.00;5.18;;;14.60;99.90;;;;;;6284942;23;20007;-64
2023/01/13 12:27:47;;;;;;;12.52;6.47;;;14.80;99.90;;;;;;6297203;23;20066;-65
2023/01/13 12:30:24;;;;;;;7.85;5.75;;;14.60;99.90;;;;;;6389266;23;20003;-66
2023/01/13 12:33:03;;;;;;;11.43;6.70;;;14.30;99.90;;;;;;6287394;23;20295;-62
2023/01/13 12:35:54;;;;;;;10.63;6.25;;;14.20;99.90;;;;;;6262004;23;20003;-65
2023/01/13 12:38:42;;;;;;;11.27;6.18;;;13.80;99.90;;;;;;6264155;23;20003;-62
2023/01/13 12:44:15;;;;;;;13.05;7.00;;;13.40;99.90;;;;;;6263395;23;20007;-62
2023/01/13 12:44:30;;;;;;;11.10;6.97;;;13.30;99.90;;;;;;6264817;23;20343;-62
2023/01/13 12:47:43;;;;;;;13.07;6.85;;;13.50;99.90;;;;;;6286232;23;20363;-64
2023/01/13 12:50:23;;;;;;;13.27;7.65;;;14.00;99.90;;;;;;6239409;23;20316;-63
2023/01/13 12:53:21;;;;;;;11.77;6.90;;;13.90;99.90;;;;;;6286353;23;20335;-62
2023/01/13 12:56:31;;;;;;;14.13;7.45;;;13.70;99.90;;;;;;6267211;23;20007;-62
2023/01/13 12:59:18;;;;;;;10.55;6.97;;;13.40;99.90;;;;;;6237531;23;20003;-65
2023/01/13 13:02:16;;;;;;;9.98;5.97;;;12.70;99.90;;;;;;6285169;23;20011;-62
2023/01/13 13:04:51;;;;;;;9.82;7.00;;;11.90;99.90;;;;;;6265204;22;20052;-64
2023/01/13 13:07:47;;;;;;;11.93;6.65;;;11.40;99.90;;;;;;6276656;23;19991;-63
2023/01/13 13:10:30;;;;;;;9.55;6.50;;;10.70;99.90;;;;;;6285988;23;20062;-64
2023/01/13 13:13:20;;;;;;;11.75;6.72;;;10.60;99.90;;;;;;6362517;23;20079;-64
2023/01/13 13:16:27;;;;;;;8.50;5.85;;;10.30;99.90;;;;;;6285590;23;19999;-62
2023/01/13 13:19:17;;;;;;;8.23;5.70;;;10.10;99.90;;;;;;6285760;23;20009;-63
2023/01/13 13:22:15;;;;;;;7.10;5.43;;;9.90;99.90;;;;;;6284588;23;20002;-64
2023/01/13 13:24:52;;;;;;;;;;;9.70;99.90;;;;;;6286907;23;19999;-62
2023/01/13 13:27:39;;;;;;;7.85;5.13;;;9.70;99.90;;;;;;6312714;23;19976;-62
2023/01/13 13:30:17;;;;;;;8.15;5.93;;;9.70;99.90;;;;;;6265065;23;20054;-67
2023/01/13 13:33:09;;;;;;;9.02;6.22;;;9.70;99.90;;;;;;6265711;23;20010;-66
2023/01/13 13:36:11;;;;;;;10.95;5.65;;;9.70;99.90;;;;;;6264727;23;20006;-63
2023/01/13 13:47:43;;;;;;;17.60;6.47;;;9.50;99.90;;;;;;6265505;23;19995;-63
2023/01/13 13:50:20;;;;;;;14.20;6.90;;;9.50;99.90;;;;;;6261620;23;20005;-63
2023/01/13 13:53:00;;;;;;;14.75;7.28;;;9.40;99.90;;;;;;6265617;23;20043;-65
2023/01/13 13:55:35;;;;;;;9.85;6.97;;;9.50;99.90;;;;;;6264709;23;20066;-65
2023/01/13 13:58:16;;;;;;;12.05;7.50;;;9.50;99.90;;;;;;6264372;23;20002;-63
2023/01/13 14:00:51;;;;;;;14.55;7.53;;;9.30;99.90;;;;;;6287585;23;20329;-65
2023/01/13 14:03:26;;;;;;;;;;;9.30;99.90;;;;;;6286984;23;20003;-62
2023/01/13 14:06:01;;;;;;;10.30;6.55;;;9.20;99.90;;;;;;6302692;22;19911;-63
2023/01/13 14:08:43;;;;;;;11.93;7.50;;;9.00;99.90;;;;;;6241256;23;20001;-66
2023/01/13 14:11:31;;;;;;;10.93;8.00;;;8.90;99.90;;;;;;6364686;23;20357;-64
2023/01/13 14:14:08;;;;;;;10.00;6.22;;;8.80;99.90;;;;;;6289628;23;19995;-65
2023/01/13 14:16:40;;;;;;;12.55;7.78;;;8.70;99.90;;;;;;6266271;23;20543;-63
2023/01/13 14:19:32;;;;;;;13.57;7.55;;;8.60;99.90;;;;;;6262249;23;20224;-64
2023/01/13 14:22:04;;;;;;;12.07;7.97;;;8.60;99.90;;;;;;6362908;23;19994;-65
2023/01/13 14:24:45;;;;;;;10.35;7.18;;;8.60;99.90;;;;;;6287323;23;20007;-62
2023/01/13 14:27:20;;;;;;;12.50;7.40;;;8.60;99.90;;;;;;6262918;23;20179;-63
2023/01/13 14:29:58;;;;;;;10.68;7.45;;;8.50;99.90;;;;;;6262383;23;19999;-63
2023/01/13 14:32:35;;;;;;;40.58;13.73;;;8.40;99.90;;;;;;6264823;23;20358;-64
2023/01/13 14:35:10;;;;;;;17.45;10.98;;;8.30;99.90;;;;;;6262821;23;19999;-63
2023/01/13 14:37:49;;;;;;;12.90;8.27;;;8.30;99.90;;;;;;6265664;23;20062;-64
2023/01/13 14:40:43;;;;;;;12.80;8.60;;;8.20;99.90;;;;;;6262444;23;20081;-64
2023/01/13 14:43:18;;;;;;;10.73;8.02;;;8.20;99.90;;;;;;6362972;23;20011;-64
2023/01/13 14:45:59;;;;;;;13.88;7.97;;;8.10;99.90;;;;;;6264056;23;19997;-62
2023/01/13 14:48:36;;;;;;;10.57;7.85;;;8.00;99.90;;;;;;6362297;23;19998;-64